sensor_id;sensor_type;location;lat;lon;timestamp;P1;durP1;ratioP1;P2;durP2;ratioP2
46429;SDS011;32131;53.454;-6.180;2022-11-04T00:02:02;9.60;;;3.58;;
46429;SDS011;32131;53.454;-6.180;2022-11-04T00:04:31;9.90;;;3.10;;
46429;SDS011;32131;53.454;-6.180;2022-11-04T00:07:01;10.93;;;2.63;;
46429;SDS011;32131;53.454;-6.180;2022-11-04T00:09:49;8.65;;;3.10;;
46429;SDS011;32131;53.454;-6.180;2022-11-04T00:12:17;8.68;;;3.40;;
46429;SDS011;32131;53.454;-6.180;2022-11-04T00:14:50;14.27;;;3.00;;
46429;SDS011;32131;53.454;-6.180;2022-11-04T00:17:19;8.25;;;3.17;;
46429;SDS011;32131;53.454;-6.180;2022-11-04T00:19:48;15.45;;;3.88;;
46429;SDS011;32131;53.454;-6.180;2022-11-04T00:22:36;7.78;;;2.67;;
46429;SDS011;32131;53.454;-6.180;2022-11-04T00:25:23;10.50;;;3.30;;
46429;SDS011;32131;53.454;-6.180;2022-11-04T00:28:09;9.10;;;3.33;;
46429;SDS011;32131;53.454;-6.180;2022-11-04T00:30:56;12.75;;;3.40;;
46429;SDS011;32131;53.454;-6.180;2022-11-04T00:33:45;13.60;;;4.03;;
46429;SDS011;32131;53.454;-6.180;2022-11-04T00:36:14;13.88;;;3.58;;
46429;SDS011;32131;53.454;-6.180;2022-11-04T00:38:44;7.00;;;3.30;;
46429;SDS011;32131;53.454;-6.180;2022-11-04T00:41:12;11.95;;;3.90;;
46429;SDS011;32131;53.454;-6.180;2022-11-04T00:43:53;14.98;;;3.70;;
46429;SDS011;32131;53.454;-6.180;2022-11-04T00:46:23;14.00;;;3.70;;
46429;SDS011;32131;53.454;-6.180;2022-11-04T00:48:51;12.00;;;3.60;;
46429;SDS011;32131;53.454;-6.180;2022-11-04T00:51:19;11.52;;;3.47;;
46429;SDS011;32131;53.454;-6.180;2022-11-04T00:53:49;9.30;;;3.13;;
46429;SDS011;32131;53.454;-6.180;2022-11-04T00:56:18;8.85;;;3.25;;
46429;SDS011;32131;53.454;-6.180;2022-11-04T00:58:46;14.88;;;3.78;;
46429;SDS011;32131;53.454;-6.180;2022-11-04T01:01:16;8.48;;;3.08;;
46429;SDS011;32131;53.454;-6.180;2022-11-04T01:03:46;11.73;;;3.13;;
46429;SDS011;32131;53.454;-6.180;2022-11-04T01:06:15;11.15;;;3.45;;
46429;SDS011;32131;53.454;-6.180;2022-11-04T01:08:44;5.60;;;3.33;;
46429;SDS011;32131;53.454;-6.180;2022-11-04T01:11:13;8.93;;;3.55;;
46429;SDS011;32131;53.454;-6.180;2022-11-04T01:13:42;10.32;;;3.78;;
46429;SDS011;32131;53.454;-6.180;2022-11-04T01:16:10;13.02;;;3.92;;
46429;SDS011;32131;53.454;-6.180;2022-11-04T01:18:39;11.38;;;3.60;;
46429;SDS011;32131;53.454;-6.180;2022-11-04T01:21:09;6.57;;;3.08;;
46429;SDS011;32131;53.454;-6.180;2022-11-04T01:23:38;11.75;;;3.67;;
46429;SDS011;32131;53.454;-6.180;2022-11-04T01:26:08;11.93;;;4.03;;
46429;SDS011;32131;53.454;-6.180;2022-11-04T01:28:39;6.80;;;3.58;;
46429;SDS011;32131;53.454;-6.180;2022-11-04T01:31:08;9.10;;;2.97;;
46429;SDS011;32131;53.454;-6.180;2022-11-04T01:33:37;13.30;;;3.10;;
46429;SDS011;32131;53.454;-6.180;2022-11-04T01:36:06;22.20;;;3.85;;
46429;SDS011;32131;53.454;-6.180;2022-11-04T01:38:36;9.50;;;3.25;;
46429;SDS011;32131;53.454;-6.180;2022-11-04T01:41:04;11.85;;;3.92;;
46429;SDS011;32131;53.454;-6.180;2022-11-04T01:43:44;11.33;;;3.03;;
46429;SDS011;32131;53.454;-6.180;2022-11-04T01:46:20;10.50;;;3.30;;
46429;SDS011;32131;53.454;-6.180;2022-11-04T01:48:54;11.45;;;2.92;;
46429;SDS011;32131;53.454;-6.180;2022-11-04T01:51:25;7.60;;;3.25;;
46429;SDS011;32131;53.454;-6.180;2022-11-04T01:53:55;16.50;;;3.55;;
46429;SDS011;32131;53.454;-6.180;2022-11-04T01:56:23;9.25;;;2.92;;
46429;SDS011;32131;53.454;-6.180;2022-11-04T01:58:56;9.88;;;2.75;;
46429;SDS011;32131;53.454;-6.180;2022-11-04T02:01:29;9.93;;;3.40;;
46429;SDS011;32131;53.454;-6.180;2022-11-04T02:03:58;8.45;;;2.83;;
46429;SDS011;32131;53.454;-6.180;2022-11-04T02:06:48;12.65;;;3.20;;
46429;SDS011;32131;53.454;-6.180;2022-11-04T02:09:18;8.80;;;3.13;;
46429;SDS011;32131;53.454;-6.180;2022-11-04T02:11:47;10.95;;;2.92;;
46429;SDS011;32131;53.454;-6.180;2022-11-04T02:14:34;15.70;;;3.58;;
46429;SDS011;32131;53.454;-6.180;2022-11-04T02:17:05;7.80;;;3.08;;
46429;SDS011;32131;53.454;-6.180;2022-11-04T02:19:54;8.55;;;3.03;;
46429;SDS011;32131;53.454;-6.180;2022-11-04T02:22:42;8.40;;;3.13;;
46429;SDS011;32131;53.454;-6.180;2022-11-04T02:31:52;9.65;;;3.53;;
46429;SDS011;32131;53.454;-6.180;2022-11-04T02:34:29;7.85;;;2.97;;
46429;SDS011;32131;53.454;-6.180;2022-11-04T02:37:07;6.90;;;3.28;;
46429;SDS011;32131;53.454;-6.180;2022-11-04T02:39:45;15.23;;;3.10;;
46429;SDS011;32131;53.454;-6.180;2022-11-04T02:42:21;8.50;;;3.63;;
46429;SDS011;32131;53.454;-6.180;2022-11-04T02:44:58;9.23;;;3.25;;
46429;SDS011;32131;53.454;-6.180;2022-11-04T02:47:35;12.48;;;2.92;;
46429;SDS011;32131;53.454;-6.180;2022-11-04T02:50:07;12.85;;;3.65;;
46429;SDS011;32131;53.454;-6.180;2022-11-04T02:52:41;5.78;;;2.72;;
46429;SDS011;32131;53.454;-6.180;2022-11-04T02:55:17;9.10;;;2.92;;
46429;SDS011;32131;53.454;-6.180;2022-11-04T02:57:49;12.10;;;3.45;;
46429;SDS011;32131;53.454;-6.180;2022-11-04T03:00:23;10.80;;;3.78;;
46429;SDS011;32131;53.454;-6.180;2022-11-04T03:02:52;9.73;;;3.28;;
46429;SDS011;32131;53.454;-6.180;2022-11-04T03:05:24;9.20;;;3.17;;
46429;SDS011;32131;53.454;-6.180;2022-11-04T03:07:55;10.05;;;3.15;;
46429;SDS011;32131;53.454;-6.180;2022-11-04T03:10:27;10.30;;;3.13;;
46429;SDS011;32131;53.454;-6.180;2022-11-04T03:13:02;5.60;;;3.00;;
46429;SDS011;32131;53.454;-6.180;2022-11-04T03:15:37;7.03;;;2.40;;
46429;SDS011;32131;53.454;-6.180;2022-11-04T03:18:11;7.85;;;2.92;;
46429;SDS011;32131;53.454;-6.180;2022-11-04T03:20:46;8.57;;;2.90;;
46429;SDS011;32131;53.454;-6.180;2022-11-04T03:23:17;13.05;;;3.13;;
46429;SDS011;32131;53.454;-6.180;2022-11-04T03:25:47;7.57;;;2.55;;
46429;SDS011;32131;53.454;-6.180;2022-11-04T03:28:22;8.85;;;2.63;;
46429;SDS011;32131;53.454;-6.180;2022-11-04T03:30:57;7.60;;;2.38;;
46429;SDS011;32131;53.454;-6.180;2022-11-04T03:33:32;9.10;;;3.05;;
46429;SDS011;32131;53.454;-6.180;2022-11-04T03:36:05;11.48;;;2.88;;
46429;SDS011;32131;53.454;-6.180;2022-11-04T03:38:34;6.22;;;2.33;;
46429;SDS011;32131;53.454;-6.180;2022-11-04T03:41:03;16.52;;;2.72;;
46429;SDS011;32131;53.454;-6.180;2022-11-04T03:43:39;6.78;;;2.95;;
46429;SDS011;32131;53.454;-6.180;2022-11-04T03:46:10;6.40;;;2.67;;
46429;SDS011;32131;53.454;-6.180;2022-11-04T03:48:38;8.13;;;2.60;;
46429;SDS011;32131;53.454;-6.180;2022-11-04T03:51:07;6.43;;;2.17;;
46429;SDS011;32131;53.454;-6.180;2022-11-04T03:53:36;5.55;;;2.05;;
46429;SDS011;32131;53.454;-6.180;2022-11-04T03:56:09;5.60;;;2.33;;
46429;SDS011;32131;53.454;-6.180;2022-11-04T03:58:52;6.70;;;2.50;;
46429;SDS011;32131;53.454;-6.180;2022-11-04T04:01:35;8.60;;;2.40;;
46429;SDS011;32131;53.454;-6.180;2022-11-04T04:04:13;12.65;;;2.33;;
46429;SDS011;32131;53.454;-6.180;2022-11-04T04:06:47;8.40;;;2.50;;
46429;SDS011;32131;53.454;-6.180;2022-11-04T04:09:20;7.05;;;2.13;;
46429;SDS011;32131;53.454;-6.180;2022-11-04T04:11:52;10.30;;;1.98;;
46429;SDS011;32131;53.454;-6.180;2022-11-04T04:14:26;5.63;;;1.95;;
46429;SDS011;32131;53.454;-6.180;2022-11-04T04:17:10;4.55;;;1.83;;
46429;SDS011;32131;53.454;-6.180;2022-11-04T04:19:46;7.25;;;1.95;;
46429;SDS011;32131;53.454;-6.180;2022-11-04T04:22:17;4.20;;;1.85;;
46429;SDS011;32131;53.454;-6.180;2022-11-04T04:24:49;2.85;;;1.58;;
46429;SDS011;32131;53.454;-6.180;2022-11-04T04:27:39;5.72;;;1.48;;
46429;SDS011;32131;53.454;-6.180;2022-11-04T04:30:10;6.50;;;2.03;;
46429;SDS011;32131;53.454;-6.180;2022-11-04T04:32:43;8.57;;;1.77;;
46429;SDS011;32131;53.454;-6.180;2022-11-04T04:35:12;5.97;;;1.65;;
46429;SDS011;32131;53.454;-6.180;2022-11-04T04:37:59;5.05;;;1.65;;
46429;SDS011;32131;53.454;-6.180;2022-11-04T04:43:44;3.88;;;1.40;;
46429;SDS011;32131;53.454;-6.180;2022-11-04T04:46:30;5.05;;;1.70;;
46429;SDS011;32131;53.454;-6.180;2022-11-04T04:49:06;2.83;;;1.02;;
46429;SDS011;32131;53.454;-6.180;2022-11-04T04:51:37;2.53;;;1.23;;
46429;SDS011;32131;53.454;-6.180;2022-11-04T04:54:07;4.07;;;1.17;;
46429;SDS011;32131;53.454;-6.180;2022-11-04T04:56:35;4.25;;;1.63;;
46429;SDS011;32131;53.454;-6.180;2022-11-04T04:59:03;3.00;;;1.50;;
46429;SDS011;32131;53.454;-6.180;2022-11-04T05:01:31;6.68;;;1.42;;
46429;SDS011;32131;53.454;-6.180;2022-11-04T05:04:00;3.05;;;1.23;;
46429;SDS011;32131;53.454;-6.180;2022-11-04T05:06:29;3.17;;;1.25;;
46429;SDS011;32131;53.454;-6.180;2022-11-04T05:08:57;7.55;;;1.60;;
46429;SDS011;32131;53.454;-6.180;2022-11-04T05:11:26;6.20;;;1.98;;
46429;SDS011;32131;53.454;-6.180;2022-11-04T05:13:54;8.57;;;1.60;;
46429;SDS011;32131;53.454;-6.180;2022-11-04T05:16:22;2.75;;;1.63;;
46429;SDS011;32131;53.454;-6.180;2022-11-04T05:18:50;2.10;;;1.08;;
46429;SDS011;32131;53.454;-6.180;2022-11-04T05:21:18;5.75;;;1.60;;
46429;SDS011;32131;53.454;-6.180;2022-11-04T05:23:48;7.30;;;1.60;;
46429;SDS011;32131;53.454;-6.180;2022-11-04T05:26:16;3.90;;;1.50;;
46429;SDS011;32131;53.454;-6.180;2022-11-04T05:28:44;5.07;;;1.08;;
46429;SDS011;32131;53.454;-6.180;2022-11-04T05:31:12;3.80;;;1.27;;
46429;SDS011;32131;53.454;-6.180;2022-11-04T05:33:40;6.53;;;1.40;;
46429;SDS011;32131;53.454;-6.180;2022-11-04T05:36:09;1.60;;;1.17;;
46429;SDS011;32131;53.454;-6.180;2022-11-04T05:38:39;4.35;;;1.17;;
46429;SDS011;32131;53.454;-6.180;2022-11-04T05:41:09;3.35;;;1.73;;
46429;SDS011;32131;53.454;-6.180;2022-11-04T05:43:51;7.72;;;1.50;;
46429;SDS011;32131;53.454;-6.180;2022-11-04T05:46:19;6.10;;;1.10;;
46429;SDS011;32131;53.454;-6.180;2022-11-04T05:48:47;2.75;;;1.20;;
46429;SDS011;32131;53.454;-6.180;2022-11-04T05:51:16;3.75;;;1.42;;
46429;SDS011;32131;53.454;-6.180;2022-11-04T05:53:45;4.30;;;1.83;;
46429;SDS011;32131;53.454;-6.180;2022-11-04T05:56:15;4.40;;;1.45;;
46429;SDS011;32131;53.454;-6.180;2022-11-04T05:58:43;3.13;;;1.00;;
46429;SDS011;32131;53.454;-6.180;2022-11-04T06:01:12;5.18;;;1.35;;
46429;SDS011;32131;53.454;-6.180;2022-11-04T06:03:50;3.75;;;1.60;;
46429;SDS011;32131;53.454;-6.180;2022-11-04T06:06:19;5.32;;;1.42;;
46429;SDS011;32131;53.454;-6.180;2022-11-04T06:08:48;5.45;;;2.10;;
46429;SDS011;32131;53.454;-6.180;2022-11-04T06:11:18;3.50;;;1.42;;
46429;SDS011;32131;53.454;-6.180;2022-11-04T06:13:47;5.93;;;2.00;;
46429;SDS011;32131;53.454;-6.180;2022-11-04T06:16:15;4.50;;;2.00;;
46429;SDS011;32131;53.454;-6.180;2022-11-04T06:18:44;6.00;;;1.83;;
46429;SDS011;32131;53.454;-6.180;2022-11-04T06:21:19;3.75;;;1.42;;
46429;SDS011;32131;53.454;-6.180;2022-11-04T06:23:51;3.03;;;1.42;;
46429;SDS011;32131;53.454;-6.180;2022-11-04T06:26:23;12.43;;;2.00;;
46429;SDS011;32131;53.454;-6.180;2022-11-04T06:28:54;6.07;;;1.88;;
46429;SDS011;32131;53.454;-6.180;2022-11-04T06:31:23;6.10;;;1.42;;
46429;SDS011;32131;53.454;-6.180;2022-11-04T06:33:52;5.47;;;1.30;;
46429;SDS011;32131;53.454;-6.180;2022-11-04T06:36:20;7.45;;;1.80;;
46429;SDS011;32131;53.454;-6.180;2022-11-04T06:38:48;8.65;;;2.13;;
46429;SDS011;32131;53.454;-6.180;2022-11-04T06:41:16;4.03;;;1.60;;
46429;SDS011;32131;53.454;-6.180;2022-11-04T06:43:46;5.25;;;1.80;;
46429;SDS011;32131;53.454;-6.180;2022-11-04T06:46:23;4.38;;;2.00;;
46429;SDS011;32131;53.454;-6.180;2022-11-04T06:48:54;3.15;;;1.27;;
46429;SDS011;32131;53.454;-6.180;2022-11-04T06:51:28;2.85;;;1.60;;
46429;SDS011;32131;53.454;-6.180;2022-11-04T06:53:59;4.75;;;1.70;;
46429;SDS011;32131;53.454;-6.180;2022-11-04T06:56:27;2.85;;;1.23;;
46429;SDS011;32131;53.454;-6.180;2022-11-04T06:58:59;3.30;;;1.70;;
46429;SDS011;32131;53.454;-6.180;2022-11-04T07:01:29;2.70;;;1.55;;
46429;SDS011;32131;53.454;-6.180;2022-11-04T07:03:59;4.88;;;1.77;;
46429;SDS011;32131;53.454;-6.180;2022-11-04T07:06:28;4.80;;;1.83;;
46429;SDS011;32131;53.454;-6.180;2022-11-04T07:08:56;5.72;;;1.88;;
46429;SDS011;32131;53.454;-6.180;2022-11-04T07:11:28;5.35;;;1.90;;
46429;SDS011;32131;53.454;-6.180;2022-11-04T07:16:26;7.05;;;2.10;;
46429;SDS011;32131;53.454;-6.180;2022-11-04T07:19:00;3.55;;;1.75;;
46429;SDS011;32131;53.454;-6.180;2022-11-04T07:21:29;7.13;;;2.33;;
46429;SDS011;32131;53.454;-6.180;2022-11-04T07:23:57;7.40;;;2.50;;
46429;SDS011;32131;53.454;-6.180;2022-11-04T07:26:25;6.63;;;2.33;;
46429;SDS011;32131;53.454;-6.180;2022-11-04T07:28:53;6.10;;;2.67;;
46429;SDS011;32131;53.454;-6.180;2022-11-04T07:31:23;6.90;;;3.10;;
46429;SDS011;32131;53.454;-6.180;2022-11-04T07:33:52;5.68;;;2.67;;
46429;SDS011;32131;53.454;-6.180;2022-11-04T07:36:20;5.60;;;3.13;;
46429;SDS011;32131;53.454;-6.180;2022-11-04T07:38:48;8.63;;;3.42;;
46429;SDS011;32131;53.454;-6.180;2022-11-04T07:41:16;9.63;;;3.25;;
46429;SDS011;32131;53.454;-6.180;2022-11-04T07:43:47;6.95;;;3.47;;
46429;SDS011;32131;53.454;-6.180;2022-11-04T07:46:16;12.80;;;3.35;;
46429;SDS011;32131;53.454;-6.180;2022-11-04T07:48:46;9.52;;;3.58;;
46429;SDS011;32131;53.454;-6.180;2022-11-04T07:51:16;6.90;;;4.43;;
46429;SDS011;32131;53.454;-6.180;2022-11-04T07:53:46;7.22;;;3.55;;
46429;SDS011;32131;53.454;-6.180;2022-11-04T07:56:14;6.97;;;3.70;;
46429;SDS011;32131;53.454;-6.180;2022-11-04T07:58:42;9.30;;;4.85;;
46429;SDS011;32131;53.454;-6.180;2022-11-04T08:01:11;7.85;;;4.50;;
46429;SDS011;32131;53.454;-6.180;2022-11-04T08:03:41;11.90;;;4.00;;
46429;SDS011;32131;53.454;-6.180;2022-11-04T08:06:12;8.60;;;3.80;;
46429;SDS011;32131;53.454;-6.180;2022-11-04T08:08:41;8.00;;;3.95;;
46429;SDS011;32131;53.454;-6.180;2022-11-04T08:11:10;7.25;;;3.30;;
46429;SDS011;32131;53.454;-6.180;2022-11-04T08:13:43;6.95;;;3.55;;
46429;SDS011;32131;53.454;-6.180;2022-11-04T08:16:13;9.75;;;3.50;;
46429;SDS011;32131;53.454;-6.180;2022-11-04T08:18:42;6.00;;;3.03;;
46429;SDS011;32131;53.454;-6.180;2022-11-04T08:21:13;8.90;;;3.47;;
46429;SDS011;32131;53.454;-6.180;2022-11-04T08:23:42;5.57;;;2.92;;
46429;SDS011;32131;53.454;-6.180;2022-11-04T08:26:12;5.63;;;2.85;;
46429;SDS011;32131;53.454;-6.180;2022-11-04T08:28:42;8.13;;;3.25;;
46429;SDS011;32131;53.454;-6.180;2022-11-04T08:31:13;8.82;;;3.45;;
46429;SDS011;32131;53.454;-6.180;2022-11-04T08:33:42;8.38;;;2.75;;
46429;SDS011;32131;53.454;-6.180;2022-11-04T08:36:13;7.15;;;2.90;;
46429;SDS011;32131;53.454;-6.180;2022-11-04T08:38:44;4.90;;;2.50;;
46429;SDS011;32131;53.454;-6.180;2022-11-04T08:41:12;20.10;;;9.32;;
46429;SDS011;32131;53.454;-6.180;2022-11-04T08:43:42;9.02;;;4.07;;
46429;SDS011;32131;53.454;-6.180;2022-11-04T08:46:11;5.88;;;2.78;;
46429;SDS011;32131;53.454;-6.180;2022-11-04T08:48:40;7.65;;;2.35;;
46429;SDS011;32131;53.454;-6.180;2022-11-04T08:51:11;17.40;;;2.20;;
46429;SDS011;32131;53.454;-6.180;2022-11-04T08:53:44;8.77;;;2.10;;
46429;SDS011;32131;53.454;-6.180;2022-11-04T08:56:13;7.10;;;2.70;;
46429;SDS011;32131;53.454;-6.180;2022-11-04T08:58:43;6.15;;;2.80;;
46429;SDS011;32131;53.454;-6.180;2022-11-04T09:01:11;10.05;;;3.08;;
46429;SDS011;32131;53.454;-6.180;2022-11-04T09:03:40;7.90;;;2.08;;
46429;SDS011;32131;53.454;-6.180;2022-11-04T09:06:09;6.63;;;2.45;;
46429;SDS011;32131;53.454;-6.180;2022-11-04T09:08:44;7.38;;;2.70;;
46429;SDS011;32131;53.454;-6.180;2022-11-04T09:11:13;5.45;;;2.30;;
46429;SDS011;32131;53.454;-6.180;2022-11-04T09:13:50;9.30;;;2.53;;
46429;SDS011;32131;53.454;-6.180;2022-11-04T09:16:21;5.40;;;2.10;;
46429;SDS011;32131;53.454;-6.180;2022-11-04T09:18:49;5.32;;;2.25;;
46429;SDS011;32131;53.454;-6.180;2022-11-04T09:21:17;8.10;;;2.03;;
46429;SDS011;32131;53.454;-6.180;2022-11-04T09:26:24;4.03;;;2.00;;
46429;SDS011;32131;53.454;-6.180;2022-11-04T09:28:56;6.50;;;2.10;;
46429;SDS011;32131;53.454;-6.180;2022-11-04T09:31:28;6.50;;;1.38;;
46429;SDS011;32131;53.454;-6.180;2022-11-04T09:33:57;5.70;;;1.48;;
46429;SDS011;32131;53.454;-6.180;2022-11-04T09:36:45;6.55;;;1.77;;
46429;SDS011;32131;53.454;-6.180;2022-11-04T09:39:21;3.95;;;1.83;;
46429;SDS011;32131;53.454;-6.180;2022-11-04T09:42:19;4.43;;;1.63;;
46429;SDS011;32131;53.454;-6.180;2022-11-04T09:45:08;4.07;;;1.70;;
46429;SDS011;32131;53.454;-6.180;2022-11-04T09:47:48;6.38;;;1.70;;
46429;SDS011;32131;53.454;-6.180;2022-11-04T09:50:25;4.03;;;1.30;;
46429;SDS011;32131;53.454;-6.180;2022-11-04T09:53:08;3.55;;;1.27;;
46429;SDS011;32131;53.454;-6.180;2022-11-04T09:55:52;5.03;;;1.75;;
46429;SDS011;32131;53.454;-6.180;2022-11-04T09:58:25;4.15;;;1.60;;
46429;SDS011;32131;53.454;-6.180;2022-11-04T10:00:59;4.28;;;1.50;;
46429;SDS011;32131;53.454;-6.180;2022-11-04T10:03:44;5.22;;;1.23;;
46429;SDS011;32131;53.454;-6.180;2022-11-04T10:09:28;1.60;;;0.80;;
46429;SDS011;32131;53.454;-6.180;2022-11-04T10:12:22;2.30;;;1.23;;
46429;SDS011;32131;53.454;-6.180;2022-11-04T10:15:16;7.45;;;1.60;;
46429;SDS011;32131;53.454;-6.180;2022-11-04T10:18:12;4.75;;;1.50;;
46429;SDS011;32131;53.454;-6.180;2022-11-04T10:20:56;3.00;;;1.17;;
46429;SDS011;32131;53.454;-6.180;2022-11-04T10:23:42;6.38;;;1.17;;
46429;SDS011;32131;53.454;-6.180;2022-11-04T10:26:22;1.90;;;0.80;;
46429;SDS011;32131;53.454;-6.180;2022-11-04T10:29:03;5.13;;;1.45;;
46429;SDS011;32131;53.454;-6.180;2022-11-04T10:31:49;4.18;;;1.55;;
46429;SDS011;32131;53.454;-6.180;2022-11-04T10:34:30;6.43;;;1.95;;
46429;SDS011;32131;53.454;-6.180;2022-11-04T10:37:04;5.35;;;1.52;;
46429;SDS011;32131;53.454;-6.180;2022-11-04T10:39:40;2.63;;;0.90;;
46429;SDS011;32131;53.454;-6.180;2022-11-04T10:42:15;6.15;;;1.05;;
46429;SDS011;32131;53.454;-6.180;2022-11-04T10:44:50;4.38;;;0.68;;
46429;SDS011;32131;53.454;-6.180;2022-11-04T10:47:26;4.93;;;1.15;;
46429;SDS011;32131;53.454;-6.180;2022-11-04T10:50:14;4.82;;;0.98;;
46429;SDS011;32131;53.454;-6.180;2022-11-04T10:53:01;2.40;;;0.98;;
46429;SDS011;32131;53.454;-6.180;2022-11-04T10:55:48;7.30;;;1.02;;
46429;SDS011;32131;53.454;-6.180;2022-11-04T10:58:30;4.97;;;0.73;;
46429;SDS011;32131;53.454;-6.180;2022-11-04T11:01:02;6.43;;;0.90;;
46429;SDS011;32131;53.454;-6.180;2022-11-04T11:03:53;5.07;;;0.85;;
46429;SDS011;32131;53.454;-6.180;2022-11-04T11:06:24;7.03;;;0.70;;
46429;SDS011;32131;53.454;-6.180;2022-11-04T11:08:55;6.22;;;0.90;;
46429;SDS011;32131;53.454;-6.180;2022-11-04T11:11:34;1.63;;;0.60;;
46429;SDS011;32131;53.454;-6.180;2022-11-04T11:14:30;4.25;;;0.50;;
46429;SDS011;32131;53.454;-6.180;2022-11-04T11:19:53;3.17;;;0.70;;
46429;SDS011;32131;53.454;-6.180;2022-11-04T11:22:30;9.65;;;0.82;;
46429;SDS011;32131;53.454;-6.180;2022-11-04T11:25:12;1.45;;;0.50;;
46429;SDS011;32131;53.454;-6.180;2022-11-04T11:27:44;2.85;;;0.68;;
46429;SDS011;32131;53.454;-6.180;2022-11-04T11:30:27;5.15;;;0.77;;
46429;SDS011;32131;53.454;-6.180;2022-11-04T11:33:02;1.95;;;0.40;;
46429;SDS011;32131;53.454;-6.180;2022-11-04T11:35:35;1.52;;;0.43;;
46429;SDS011;32131;53.454;-6.180;2022-11-04T11:38:15;3.83;;;0.88;;
46429;SDS011;32131;53.454;-6.180;2022-11-04T11:40:47;3.60;;;1.13;;
46429;SDS011;32131;53.454;-6.180;2022-11-04T11:43:39;2.70;;;0.55;;
46429;SDS011;32131;53.454;-6.180;2022-11-04T11:46:10;1.85;;;0.65;;
46429;SDS011;32131;53.454;-6.180;2022-11-04T11:48:54;2.50;;;0.70;;
46429;SDS011;32131;53.454;-6.180;2022-11-04T11:51:28;1.13;;;0.50;;
46429;SDS011;32131;53.454;-6.180;2022-11-04T11:57:07;4.13;;;0.80;;
46429;SDS011;32131;53.454;-6.180;2022-11-04T11:59:53;2.10;;;0.60;;
46429;SDS011;32131;53.454;-6.180;2022-11-04T12:02:53;3.63;;;1.02;;
46429;SDS011;32131;53.454;-6.180;2022-11-04T12:05:33;3.03;;;0.68;;
46429;SDS011;32131;53.454;-6.180;2022-11-04T12:08:38;2.63;;;0.63;;
46429;SDS011;32131;53.454;-6.180;2022-11-04T12:11:40;1.35;;;0.60;;
46429;SDS011;32131;53.454;-6.180;2022-11-04T12:14:28;3.83;;;1.08;;
46429;SDS011;32131;53.454;-6.180;2022-11-04T12:17:17;2.72;;;0.80;;
46429;SDS011;32131;53.454;-6.180;2022-11-04T12:20:06;5.60;;;1.38;;
46429;SDS011;32131;53.454;-6.180;2022-11-04T12:22:52;4.35;;;0.95;;
46429;SDS011;32131;53.454;-6.180;2022-11-04T12:25:30;3.72;;;1.10;;
46429;SDS011;32131;53.454;-6.180;2022-11-04T12:28:10;6.95;;;1.63;;
46429;SDS011;32131;53.454;-6.180;2022-11-04T12:30:51;7.25;;;1.27;;
46429;SDS011;32131;53.454;-6.180;2022-11-04T12:33:34;2.85;;;0.82;;
46429;SDS011;32131;53.454;-6.180;2022-11-04T12:36:26;5.40;;;0.73;;
46429;SDS011;32131;53.454;-6.180;2022-11-04T12:39:15;4.88;;;0.95;;
46429;SDS011;32131;53.454;-6.180;2022-11-04T12:41:55;6.00;;;0.95;;
46429;SDS011;32131;53.454;-6.180;2022-11-04T12:44:57;1.98;;;0.57;;
46429;SDS011;32131;53.454;-6.180;2022-11-04T12:47:45;5.18;;;0.88;;
46429;SDS011;32131;53.454;-6.180;2022-11-04T12:50:34;2.60;;;0.60;;
46429;SDS011;32131;53.454;-6.180;2022-11-04T12:53:17;8.48;;;1.00;;
46429;SDS011;32131;53.454;-6.180;2022-11-04T12:56:19;1.83;;;0.57;;
46429;SDS011;32131;53.454;-6.180;2022-11-04T12:59:09;5.22;;;0.50;;
46429;SDS011;32131;53.454;-6.180;2022-11-04T13:04:28;3.95;;;0.38;;
46429;SDS011;32131;53.454;-6.180;2022-11-04T13:07:14;2.45;;;0.80;;
46429;SDS011;32131;53.454;-6.180;2022-11-04T13:09:54;1.88;;;0.70;;
46429;SDS011;32131;53.454;-6.180;2022-11-04T13:12:49;2.47;;;0.40;;
46429;SDS011;32131;53.454;-6.180;2022-11-04T13:15:26;5.00;;;0.80;;
46429;SDS011;32131;53.454;-6.180;2022-11-04T13:17:59;4.65;;;0.68;;
46429;SDS011;32131;53.454;-6.180;2022-11-04T13:20:35;1.15;;;0.43;;
46429;SDS011;32131;53.454;-6.180;2022-11-04T13:23:15;2.13;;;0.60;;
46429;SDS011;32131;53.454;-6.180;2022-11-04T13:25:49;4.40;;;1.08;;
46429;SDS011;32131;53.454;-6.180;2022-11-04T13:28:20;2.47;;;0.70;;
46429;SDS011;32131;53.454;-6.180;2022-11-04T13:30:57;4.80;;;0.70;;
46429;SDS011;32131;53.454;-6.180;2022-11-04T13:33:32;1.65;;;0.60;;
46429;SDS011;32131;53.454;-6.180;2022-11-04T13:36:11;3.70;;;0.50;;
46429;SDS011;32131;53.454;-6.180;2022-11-04T13:38:59;3.60;;;0.80;;
46429;SDS011;32131;53.454;-6.180;2022-11-04T13:41:44;1.17;;;0.45;;
46429;SDS011;32131;53.454;-6.180;2022-11-04T13:44:47;2.03;;;0.60;;
46429;SDS011;32131;53.454;-6.180;2022-11-04T13:47:31;2.80;;;0.75;;
46429;SDS011;32131;53.454;-6.180;2022-11-04T13:50:32;1.02;;;0.50;;
46429;SDS011;32131;53.454;-6.180;2022-11-04T13:53:08;1.95;;;0.70;;
46429;SDS011;32131;53.454;-6.180;2022-11-04T13:55:50;3.85;;;0.80;;
46429;SDS011;32131;53.454;-6.180;2022-11-04T13:58:20;3.00;;;0.63;;
46429;SDS011;32131;53.454;-6.180;2022-11-04T14:01:12;3.50;;;1.23;;
46429;SDS011;32131;53.454;-6.180;2022-11-04T14:04:27;5.57;;;1.13;;
46429;SDS011;32131;53.454;-6.180;2022-11-04T14:06:59;3.42;;;0.73;;
46429;SDS011;32131;53.454;-6.180;2022-11-04T14:09:34;2.42;;;0.65;;
46429;SDS011;32131;53.454;-6.180;2022-11-04T14:12:33;4.57;;;1.30;;
46429;SDS011;32131;53.454;-6.180;2022-11-04T14:15:12;1.55;;;0.68;;
46429;SDS011;32131;53.454;-6.180;2022-11-04T14:18:01;3.33;;;0.73;;
46429;SDS011;32131;53.454;-6.180;2022-11-04T14:20:37;5.60;;;0.88;;
46429;SDS011;32131;53.454;-6.180;2022-11-04T14:23:31;3.35;;;0.90;;
46429;SDS011;32131;53.454;-6.180;2022-11-04T14:26:00;6.00;;;1.17;;
46429;SDS011;32131;53.454;-6.180;2022-11-04T14:28:30;5.30;;;0.90;;
46429;SDS011;32131;53.454;-6.180;2022-11-04T14:31:00;6.63;;;0.93;;
46429;SDS011;32131;53.454;-6.180;2022-11-04T14:39:02;2.10;;;0.45;;
46429;SDS011;32131;53.454;-6.180;2022-11-04T14:41:50;1.20;;;0.57;;
46429;SDS011;32131;53.454;-6.180;2022-11-04T14:44:33;1.92;;;0.57;;
46429;SDS011;32131;53.454;-6.180;2022-11-04T14:47:12;8.10;;;1.15;;
46429;SDS011;32131;53.454;-6.180;2022-11-04T14:49:49;6.43;;;1.08;;
46429;SDS011;32131;53.454;-6.180;2022-11-04T14:52:29;2.38;;;0.70;;
46429;SDS011;32131;53.454;-6.180;2022-11-04T14:55:05;5.82;;;1.30;;
46429;SDS011;32131;53.454;-6.180;2022-11-04T14:57:39;5.30;;;1.50;;
46429;SDS011;32131;53.454;-6.180;2022-11-04T15:00:23;1.73;;;0.60;;
46429;SDS011;32131;53.454;-6.180;2022-11-04T15:02:58;4.88;;;0.93;;
46429;SDS011;32131;53.454;-6.180;2022-11-04T15:05:30;6.25;;;0.98;;
46429;SDS011;32131;53.454;-6.180;2022-11-04T15:08:28;3.72;;;0.73;;
46429;SDS011;32131;53.454;-6.180;2022-11-04T15:11:07;2.35;;;1.20;;
46429;SDS011;32131;53.454;-6.180;2022-11-04T15:13:44;3.22;;;1.50;;
46429;SDS011;32131;53.454;-6.180;2022-11-04T15:16:16;4.45;;;1.40;;
46429;SDS011;32131;53.454;-6.180;2022-11-04T15:18:54;5.60;;;1.35;;
46429;SDS011;32131;53.454;-6.180;2022-11-04T15:21:27;4.35;;;1.50;;
46429;SDS011;32131;53.454;-6.180;2022-11-04T15:23:58;3.53;;;1.23;;
46429;SDS011;32131;53.454;-6.180;2022-11-04T15:26:38;4.43;;;1.65;;
46429;SDS011;32131;53.454;-6.180;2022-11-04T15:29:10;4.28;;;0.90;;
46429;SDS011;32131;53.454;-6.180;2022-11-04T15:31:51;3.88;;;1.23;;
46429;SDS011;32131;53.454;-6.180;2022-11-04T15:34:28;5.80;;;0.80;;
46429;SDS011;32131;53.454;-6.180;2022-11-04T15:37:01;6.95;;;1.13;;
46429;SDS011;32131;53.454;-6.180;2022-11-04T15:39:36;4.38;;;1.23;;
46429;SDS011;32131;53.454;-6.180;2022-11-04T15:42:12;3.97;;;0.90;;
46429;SDS011;32131;53.454;-6.180;2022-11-04T15:48:28;4.00;;;1.10;;
46429;SDS011;32131;53.454;-6.180;2022-11-04T15:51:03;4.50;;;0.90;;
46429;SDS011;32131;53.454;-6.180;2022-11-04T15:53:47;10.50;;;1.35;;
46429;SDS011;32131;53.454;-6.180;2022-11-04T15:56:20;2.85;;;1.25;;
46429;SDS011;32131;53.454;-6.180;2022-11-04T15:58:58;3.00;;;1.17;;